Gulf - Port au Port: Past 24 Hour Conditions

 

Grates Cove

09:30 PM NDT 20 October 2014
This table is a summary of hourly weather conditions for the past 24 hours.
Date / Time
(NDT)
Wind(knots) Conditions Visibility(km) Pressure(kPa) Air tempC) Relative humidity(%) Dew pointC)
20 October 2014
21:30 WSW 26 gust 40 N/A N/A 100.0 10 81 7
20:30 WSW 31 gust 39 N/A N/A 99.9 10 75 6
19:30 WSW 33 gust 38 N/A N/A 99.8 11 84 8
18:30 WSW 27 gust 35 N/A N/A 99.8 11 86 9
17:30 WSW 30 gust 35 N/A N/A 99.7 12 84 9
16:30 WSW 28 gust 40 N/A N/A 99.5 13 79 10
15:30 WSW 32 gust 45 N/A N/A 99.5 14 80 11
14:30 WSW 24 gust 34 N/A N/A 99.5 14 87 12
13:30 WSW 23 gust 37 N/A N/A 99.4 16 86 13
12:30 SSW 24 gust 33 N/A N/A 99.2 16 93 15
11:30 S 22 gust 31 N/A N/A 99.4 17 96 16
10:30 S 23 gust 31 N/A N/A 99.5 16 98 15
9:30 S 16 gust 23 N/A N/A 99.7 14 99 14
8:30 S 18 gust 29 N/A N/A 99.8 15 98 14
7:30 S 15 gust 23 N/A N/A 99.9 13 99 13
6:30 SSE 21 gust 26 N/A N/A 100.0 13 98 13
5:30 S 17 gust 22 N/A N/A 100.1 13 97 13
4:30 S 26 gust 31 N/A N/A 100.1 13 97 13
3:30 S 18 gust 24 N/A N/A 100.3 14 95 13
2:30 S 18 gust 27 N/A N/A 100.4 13 95 12
1:30 SSW 18 N/A N/A 100.6 13 94 12
0:30 SW 13 N/A N/A 100.6 13 93 12
19 October 2014
23:30 S 7 N/A N/A 100.7 13 95 12
22:30 WSW 11 gust 17 N/A N/A 100.7 12 96 11
21:30 SW 17 N/A N/A 100.6 12 95 11
 
Map of Atlantic - Newfoundland marine weather areas Southwestern Grand Banks - 44138 Banquereau - 44139 Tail of the Bank - 44140 Nickerson Bank - 44251 Northeast Burgeo Bank - 44255 Blanc-Sablon Airport Cap Whittle Chevery Natashquan Airport Heath Point Miscou Island Grand Étang Ingonish Beach North Mountain St.Paul Island J.A. Douglas McCurdy Sydney Airport Charlottetown Airport East Point North Cape Argentia Bonavista Burgeo Cape Race Corner Brook Daniel's Harbour Englee Ferolle Point La Scie Port aux Basques Rocky Harbour Sagona Island St. Anthony Airport St. John's Int'l Airport St. Lawrence Stephenville Airport Twillingate Winterland Wreckhouse Cartwright Airport Mary's Harbour Grates Cove Pool's Island Marticot Island Long Pond Îles de la Madeleine Airport
Legend: buoyBuoy land stationLand Station